Airfield :
LOGIN :

Register | Disclaimer

   EN    FR    IT 

 










Legend :    VFR   Marginal VFR   IFR   Intensive IFR   Very Intensive IFR
Visi :
Ceiling :
>= 8 km
>= 3000ft
5 to 8 km
1000 to 3000 ft
1500m to 5 km
500 to 1000 ft
800 to 1500m
200 to 500 ft
< 800m
< 200 ft
Symbols :   Thunderstorms  Fog  Heavy snow  Heavy precipitations  Wind > 20 kt
SIGMETs :     Misc.  Thunderstorms  Icing  Turbulence  Mountain Waves  Volcanic Ashes






- Airport Elevation : 268 ft
- IATA code : BFS


EGAA - Belfast Aldergrove

CURRENT METAR :
  • 162150Z 15002KT 6000 NSC 02/02 Q1009

EXPIRED METARs :
  • 162120Z 00000KT 6000 NSC 02/02 Q1009
  • 162050Z 12002KT 6000 NSC 03/03 Q1009
  • 162020Z 16002KT 8000 NSC 03/03 Q1009
  • 161950Z VRB02KT 8000 FEW038 03/03 Q1009
  • 161920Z 23002KT 7000 SCT036 03/03 Q1009

TAF TAF EGAA
Valid from the 16 at 18:00 until the 17 at 18:00 UTC


161659Z 1618/1718 VRB02KT 9999 FEW020
PROB30
TEMPO 1618/1624 8000 -RA
PROB40
TEMPO 1704/1709 7000 RA SHRA BKN009
BECMG 1709/1712 35010KT



MET'MAP, your aeronautical weather chart ! - Copyright ORBIFLY December 2007 - Disclaimer

ORBIFLY MET'MAP TEAM :

Programming & Development : Alexandra Zaïnal
Concept & Development : Baudouin d'Aumeries
Co-Development & Prog : Marc-Olivier Méhu
Technical & hardware support : Manuel Goepfert

Contact : metmap@orbifly.com




SOURCES & CREDITS :

   NOAA